sensor_id;sensor_type;location;lat;lon;timestamp;P1;durP1;ratioP1;P2;durP2;ratioP2
19016;SDS011;9641;51.494;6.670;2022-07-01T00:00:12;24.17;;;11.83;;
19016;SDS011;9641;51.494;6.670;2022-07-01T00:02:40;25.60;;;11.07;;
19016;SDS011;9641;51.494;6.670;2022-07-01T00:05:07;29.43;;;12.60;;
19016;SDS011;9641;51.494;6.670;2022-07-01T00:07:43;26.57;;;12.07;;
19016;SDS011;9641;51.494;6.670;2022-07-01T00:10:10;27.70;;;12.67;;
19016;SDS011;9641;51.494;6.670;2022-07-01T00:12:37;28.17;;;13.17;;
19016;SDS011;9641;51.494;6.670;2022-07-01T00:15:05;34.90;;;14.17;;
19016;SDS011;9641;51.494;6.670;2022-07-01T00:17:32;38.03;;;15.33;;
19016;SDS011;9641;51.494;6.670;2022-07-01T00:20:01;40.63;;;16.47;;
19016;SDS011;9641;51.494;6.670;2022-07-01T00:22:28;48.93;;;18.17;;
19016;SDS011;9641;51.494;6.670;2022-07-01T00:24:55;49.87;;;17.60;;
19016;SDS011;9641;51.494;6.670;2022-07-01T00:27:22;47.83;;;18.10;;
19016;SDS011;9641;51.494;6.670;2022-07-01T00:29:49;51.20;;;18.70;;
19016;SDS011;9641;51.494;6.670;2022-07-01T00:32:16;48.87;;;18.57;;
19016;SDS011;9641;51.494;6.670;2022-07-01T00:34:43;50.70;;;20.57;;
19016;SDS011;9641;51.494;6.670;2022-07-01T00:37:11;50.57;;;19.47;;
19016;SDS011;9641;51.494;6.670;2022-07-01T00:39:38;59.77;;;20.67;;
19016;SDS011;9641;51.494;6.670;2022-07-01T00:42:05;55.67;;;20.00;;
19016;SDS011;9641;51.494;6.670;2022-07-01T00:44:32;53.10;;;19.60;;
19016;SDS011;9641;51.494;6.670;2022-07-01T00:47:00;50.67;;;19.50;;
19016;SDS011;9641;51.494;6.670;2022-07-01T00:49:28;60.43;;;20.20;;
19016;SDS011;9641;51.494;6.670;2022-07-01T00:51:55;54.50;;;19.40;;
19016;SDS011;9641;51.494;6.670;2022-07-01T00:54:25;56.00;;;19.40;;
19016;SDS011;9641;51.494;6.670;2022-07-01T00:56:52;49.23;;;19.40;;
19016;SDS011;9641;51.494;6.670;2022-07-01T00:59:22;53.33;;;19.27;;
19016;SDS011;9641;51.494;6.670;2022-07-01T01:01:49;56.60;;;20.60;;
19016;SDS011;9641;51.494;6.670;2022-07-01T01:04:16;49.40;;;19.13;;
19016;SDS011;9641;51.494;6.670;2022-07-01T01:06:43;45.17;;;18.97;;
19016;SDS011;9641;51.494;6.670;2022-07-01T01:09:10;48.83;;;19.47;;
19016;SDS011;9641;51.494;6.670;2022-07-01T01:11:38;41.13;;;16.27;;
19016;SDS011;9641;51.494;6.670;2022-07-01T01:14:05;41.73;;;17.07;;
19016;SDS011;9641;51.494;6.670;2022-07-01T01:16:32;49.93;;;17.57;;
19016;SDS011;9641;51.494;6.670;2022-07-01T01:19:02;44.83;;;16.67;;
19016;SDS011;9641;51.494;6.670;2022-07-01T01:21:32;37.37;;;14.80;;
19016;SDS011;9641;51.494;6.670;2022-07-01T01:23:59;34.23;;;14.70;;
19016;SDS011;9641;51.494;6.670;2022-07-01T01:26:26;35.00;;;14.57;;
19016;SDS011;9641;51.494;6.670;2022-07-01T01:28:52;35.43;;;15.27;;
19016;SDS011;9641;51.494;6.670;2022-07-01T01:31:26;32.03;;;13.77;;
19016;SDS011;9641;51.494;6.670;2022-07-01T01:33:55;34.03;;;14.40;;
19016;SDS011;9641;51.494;6.670;2022-07-01T01:36:22;32.80;;;13.83;;
19016;SDS011;9641;51.494;6.670;2022-07-01T01:38:50;35.13;;;12.53;;
19016;SDS011;9641;51.494;6.670;2022-07-01T01:41:17;29.63;;;12.83;;
19016;SDS011;9641;51.494;6.670;2022-07-01T01:43:44;28.07;;;12.20;;
19016;SDS011;9641;51.494;6.670;2022-07-01T01:46:12;35.40;;;12.97;;
19016;SDS011;9641;51.494;6.670;2022-07-01T01:48:39;30.83;;;12.70;;
19016;SDS011;9641;51.494;6.670;2022-07-01T01:51:05;27.63;;;12.17;;
19016;SDS011;9641;51.494;6.670;2022-07-01T01:53:32;30.67;;;12.40;;
19016;SDS011;9641;51.494;6.670;2022-07-01T01:56:00;30.27;;;11.87;;
19016;SDS011;9641;51.494;6.670;2022-07-01T01:58:27;27.33;;;12.03;;
19016;SDS011;9641;51.494;6.670;2022-07-01T02:00:54;23.63;;;10.97;;
19016;SDS011;9641;51.494;6.670;2022-07-01T02:03:21;28.07;;;10.57;;
19016;SDS011;9641;51.494;6.670;2022-07-01T02:05:47;27.57;;;10.90;;
19016;SDS011;9641;51.494;6.670;2022-07-01T02:08:15;26.93;;;10.60;;
19016;SDS011;9641;51.494;6.670;2022-07-01T02:10:42;29.87;;;10.43;;
19016;SDS011;9641;51.494;6.670;2022-07-01T02:13:10;24.73;;;10.20;;
19016;SDS011;9641;51.494;6.670;2022-07-01T02:15:37;27.53;;;11.23;;
19016;SDS011;9641;51.494;6.670;2022-07-01T02:18:04;28.87;;;10.40;;
19016;SDS011;9641;51.494;6.670;2022-07-01T02:20:31;25.53;;;9.97;;
19016;SDS011;9641;51.494;6.670;2022-07-01T02:22:59;26.47;;;10.60;;
19016;SDS011;9641;51.494;6.670;2022-07-01T02:25:25;23.43;;;9.77;;
19016;SDS011;9641;51.494;6.670;2022-07-01T02:27:52;26.00;;;10.57;;
19016;SDS011;9641;51.494;6.670;2022-07-01T02:30:21;30.30;;;11.10;;
19016;SDS011;9641;51.494;6.670;2022-07-01T02:32:48;23.03;;;9.20;;
19016;SDS011;9641;51.494;6.670;2022-07-01T02:35:14;24.10;;;8.77;;
19016;SDS011;9641;51.494;6.670;2022-07-01T02:37:41;23.73;;;10.03;;
19016;SDS011;9641;51.494;6.670;2022-07-01T02:40:08;25.07;;;10.63;;
19016;SDS011;9641;51.494;6.670;2022-07-01T02:42:37;25.80;;;10.03;;
19016;SDS011;9641;51.494;6.670;2022-07-01T02:45:05;26.03;;;9.33;;
19016;SDS011;9641;51.494;6.670;2022-07-01T02:47:35;28.20;;;9.57;;
19016;SDS011;9641;51.494;6.670;2022-07-01T02:50:03;26.37;;;10.07;;
19016;SDS011;9641;51.494;6.670;2022-07-01T02:52:31;24.97;;;9.47;;
19016;SDS011;9641;51.494;6.670;2022-07-01T02:54:59;24.47;;;9.27;;
19016;SDS011;9641;51.494;6.670;2022-07-01T02:57:26;26.10;;;9.40;;
19016;SDS011;9641;51.494;6.670;2022-07-01T02:59:53;22.30;;;9.10;;
19016;SDS011;9641;51.494;6.670;2022-07-01T03:02:20;23.27;;;9.07;;
19016;SDS011;9641;51.494;6.670;2022-07-01T03:04:49;24.23;;;9.77;;
19016;SDS011;9641;51.494;6.670;2022-07-01T03:07:18;26.33;;;10.53;;
19016;SDS011;9641;51.494;6.670;2022-07-01T03:09:45;22.80;;;9.93;;
19016;SDS011;9641;51.494;6.670;2022-07-01T03:12:12;23.33;;;10.70;;
19016;SDS011;9641;51.494;6.670;2022-07-01T03:14:54;21.67;;;10.20;;
19016;SDS011;9641;51.494;6.670;2022-07-01T03:17:22;22.37;;;10.20;;
19016;SDS011;9641;51.494;6.670;2022-07-01T03:19:51;26.60;;;10.77;;
19016;SDS011;9641;51.494;6.670;2022-07-01T03:22:18;22.80;;;9.90;;
19016;SDS011;9641;51.494;6.670;2022-07-01T03:24:46;18.90;;;9.77;;
19016;SDS011;9641;51.494;6.670;2022-07-01T03:27:13;24.47;;;11.20;;
19016;SDS011;9641;51.494;6.670;2022-07-01T03:29:40;22.13;;;9.93;;
19016;SDS011;9641;51.494;6.670;2022-07-01T03:32:07;20.13;;;11.20;;
19016;SDS011;9641;51.494;6.670;2022-07-01T03:34:35;20.90;;;9.97;;
19016;SDS011;9641;51.494;6.670;2022-07-01T03:37:05;19.10;;;9.80;;
19016;SDS011;9641;51.494;6.670;2022-07-01T03:39:33;23.60;;;10.93;;
19016;SDS011;9641;51.494;6.670;2022-07-01T03:42:01;21.17;;;10.10;;
19016;SDS011;9641;51.494;6.670;2022-07-01T03:44:28;20.67;;;10.07;;
19016;SDS011;9641;51.494;6.670;2022-07-01T03:46:55;19.70;;;9.87;;
19016;SDS011;9641;51.494;6.670;2022-07-01T03:49:22;19.57;;;10.30;;
19016;SDS011;9641;51.494;6.670;2022-07-01T03:51:49;16.03;;;9.67;;
19016;SDS011;9641;51.494;6.670;2022-07-01T03:54:17;18.47;;;10.10;;
19016;SDS011;9641;51.494;6.670;2022-07-01T03:56:56;20.60;;;10.70;;
19016;SDS011;9641;51.494;6.670;2022-07-01T03:59:23;21.03;;;10.23;;
19016;SDS011;9641;51.494;6.670;2022-07-01T04:01:51;19.60;;;10.40;;
19016;SDS011;9641;51.494;6.670;2022-07-01T04:04:18;25.37;;;10.80;;
19016;SDS011;9641;51.494;6.670;2022-07-01T04:06:45;24.23;;;12.43;;
19016;SDS011;9641;51.494;6.670;2022-07-01T04:09:12;24.50;;;11.63;;
19016;SDS011;9641;51.494;6.670;2022-07-01T04:11:42;26.67;;;12.60;;
19016;SDS011;9641;51.494;6.670;2022-07-01T04:14:10;21.13;;;12.43;;
19016;SDS011;9641;51.494;6.670;2022-07-01T04:16:38;21.33;;;11.27;;
19016;SDS011;9641;51.494;6.670;2022-07-01T04:19:05;24.83;;;12.07;;
19016;SDS011;9641;51.494;6.670;2022-07-01T04:21:33;25.50;;;11.23;;
19016;SDS011;9641;51.494;6.670;2022-07-01T04:24:18;22.07;;;11.13;;
19016;SDS011;9641;51.494;6.670;2022-07-01T04:26:46;20.23;;;11.27;;
19016;SDS011;9641;51.494;6.670;2022-07-01T04:29:13;20.43;;;10.90;;
19016;SDS011;9641;51.494;6.670;2022-07-01T04:31:40;21.77;;;10.87;;
19016;SDS011;9641;51.494;6.670;2022-07-01T04:34:07;20.97;;;11.23;;
19016;SDS011;9641;51.494;6.670;2022-07-01T04:36:35;20.43;;;10.83;;
19016;SDS011;9641;51.494;6.670;2022-07-01T04:39:02;18.80;;;10.93;;
19016;SDS011;9641;51.494;6.670;2022-07-01T04:41:30;20.10;;;10.50;;
19016;SDS011;9641;51.494;6.670;2022-07-01T04:44:16;21.97;;;10.60;;
19016;SDS011;9641;51.494;6.670;2022-07-01T04:46:43;21.30;;;10.13;;
19016;SDS011;9641;51.494;6.670;2022-07-01T04:49:10;26.90;;;11.67;;
19016;SDS011;9641;51.494;6.670;2022-07-01T04:51:37;20.03;;;11.53;;
19016;SDS011;9641;51.494;6.670;2022-07-01T04:54:04;26.23;;;12.70;;
19016;SDS011;9641;51.494;6.670;2022-07-01T04:56:32;17.60;;;11.63;;
19016;SDS011;9641;51.494;6.670;2022-07-01T04:59:00;21.53;;;12.53;;
19016;SDS011;9641;51.494;6.670;2022-07-01T05:01:28;22.50;;;13.57;;
19016;SDS011;9641;51.494;6.670;2022-07-01T05:03:56;26.47;;;13.53;;
19016;SDS011;9641;51.494;6.670;2022-07-01T05:06:23;22.07;;;12.70;;
19016;SDS011;9641;51.494;6.670;2022-07-01T05:08:50;23.57;;;13.40;;
19016;SDS011;9641;51.494;6.670;2022-07-01T05:11:17;23.73;;;13.87;;
19016;SDS011;9641;51.494;6.670;2022-07-01T05:13:44;21.40;;;11.73;;
19016;SDS011;9641;51.494;6.670;2022-07-01T05:16:10;17.77;;;11.87;;
19016;SDS011;9641;51.494;6.670;2022-07-01T05:18:39;24.00;;;13.27;;
19016;SDS011;9641;51.494;6.670;2022-07-01T05:21:23;20.07;;;13.03;;
19016;SDS011;9641;51.494;6.670;2022-07-01T05:24:08;16.90;;;11.70;;
19016;SDS011;9641;51.494;6.670;2022-07-01T05:26:35;18.73;;;11.57;;
19016;SDS011;9641;51.494;6.670;2022-07-01T05:29:02;20.63;;;12.00;;
19016;SDS011;9641;51.494;6.670;2022-07-01T05:31:29;18.53;;;10.83;;
19016;SDS011;9641;51.494;6.670;2022-07-01T05:33:57;18.07;;;10.87;;
19016;SDS011;9641;51.494;6.670;2022-07-01T05:36:24;15.50;;;10.03;;
19016;SDS011;9641;51.494;6.670;2022-07-01T05:38:51;17.63;;;10.13;;
19016;SDS011;9641;51.494;6.670;2022-07-01T05:41:18;14.80;;;10.53;;
19016;SDS011;9641;51.494;6.670;2022-07-01T05:43:45;18.30;;;9.90;;
19016;SDS011;9641;51.494;6.670;2022-07-01T05:46:11;15.63;;;10.23;;
19016;SDS011;9641;51.494;6.670;2022-07-01T05:48:38;16.63;;;9.30;;
19016;SDS011;9641;51.494;6.670;2022-07-01T05:51:07;14.53;;;9.63;;
19016;SDS011;9641;51.494;6.670;2022-07-01T05:53:33;13.73;;;8.90;;
19016;SDS011;9641;51.494;6.670;2022-07-01T05:56:00;18.00;;;8.97;;
19016;SDS011;9641;51.494;6.670;2022-07-01T05:58:27;16.03;;;8.50;;
19016;SDS011;9641;51.494;6.670;2022-07-01T06:00:54;17.93;;;8.73;;
19016;SDS011;9641;51.494;6.670;2022-07-01T06:03:21;12.10;;;7.73;;
19016;SDS011;9641;51.494;6.670;2022-07-01T06:05:48;12.43;;;8.30;;
19016;SDS011;9641;51.494;6.670;2022-07-01T06:08:19;8.87;;;7.37;;
19016;SDS011;9641;51.494;6.670;2022-07-01T06:10:55;11.80;;;7.50;;
19016;SDS011;9641;51.494;6.670;2022-07-01T06:13:22;10.53;;;6.80;;
19016;SDS011;9641;51.494;6.670;2022-07-01T06:15:49;11.77;;;6.87;;
19016;SDS011;9641;51.494;6.670;2022-07-01T06:18:16;11.07;;;7.37;;
19016;SDS011;9641;51.494;6.670;2022-07-01T06:20:42;12.27;;;6.83;;
19016;SDS011;9641;51.494;6.670;2022-07-01T06:23:09;9.90;;;6.60;;
19016;SDS011;9641;51.494;6.670;2022-07-01T06:25:37;14.63;;;6.80;;
19016;SDS011;9641;51.494;6.670;2022-07-01T06:28:04;10.83;;;6.40;;
19016;SDS011;9641;51.494;6.670;2022-07-01T06:30:31;12.77;;;6.60;;
19016;SDS011;9641;51.494;6.670;2022-07-01T06:32:58;11.53;;;6.47;;
19016;SDS011;9641;51.494;6.670;2022-07-01T06:35:25;9.63;;;6.63;;
19016;SDS011;9641;51.494;6.670;2022-07-01T06:37:51;9.73;;;5.73;;
19016;SDS011;9641;51.494;6.670;2022-07-01T06:40:18;10.27;;;6.23;;
19016;SDS011;9641;51.494;6.670;2022-07-01T06:42:47;7.50;;;5.70;;
19016;SDS011;9641;51.494;6.670;2022-07-01T06:45:15;11.97;;;6.20;;
19016;SDS011;9641;51.494;6.670;2022-07-01T06:47:42;8.60;;;5.90;;
19016;SDS011;9641;51.494;6.670;2022-07-01T06:50:09;9.67;;;5.67;;
19016;SDS011;9641;51.494;6.670;2022-07-01T06:52:36;6.00;;;5.17;;
19016;SDS011;9641;51.494;6.670;2022-07-01T06:55:03;10.63;;;5.90;;
19016;SDS011;9641;51.494;6.670;2022-07-01T06:57:30;7.30;;;5.37;;
19016;SDS011;9641;51.494;6.670;2022-07-01T06:59:58;7.93;;;5.90;;
19016;SDS011;9641;51.494;6.670;2022-07-01T07:02:25;7.60;;;5.63;;
19016;SDS011;9641;51.494;6.670;2022-07-01T07:04:52;9.37;;;5.57;;
19016;SDS011;9641;51.494;6.670;2022-07-01T07:07:23;12.57;;;5.60;;
19016;SDS011;9641;51.494;6.670;2022-07-01T07:09:49;7.60;;;4.83;;
19016;SDS011;9641;51.494;6.670;2022-07-01T07:12:16;10.10;;;5.17;;
19016;SDS011;9641;51.494;6.670;2022-07-01T07:14:43;6.07;;;4.73;;
19016;SDS011;9641;51.494;6.670;2022-07-01T07:17:11;7.30;;;5.47;;
19016;SDS011;9641;51.494;6.670;2022-07-01T07:19:38;6.10;;;4.70;;
19016;SDS011;9641;51.494;6.670;2022-07-01T07:22:06;5.60;;;4.60;;
19016;SDS011;9641;51.494;6.670;2022-07-01T07:24:33;7.20;;;4.83;;
19016;SDS011;9641;51.494;6.670;2022-07-01T07:27:00;5.73;;;4.60;;
19016;SDS011;9641;51.494;6.670;2022-07-01T07:29:27;9.17;;;4.40;;
19016;SDS011;9641;51.494;6.670;2022-07-01T07:31:54;6.93;;;4.50;;
19016;SDS011;9641;51.494;6.670;2022-07-01T07:34:22;5.53;;;4.10;;
19016;SDS011;9641;51.494;6.670;2022-07-01T07:36:49;7.47;;;4.80;;
19016;SDS011;9641;51.494;6.670;2022-07-01T07:39:16;7.80;;;4.43;;
19016;SDS011;9641;51.494;6.670;2022-07-01T07:41:43;8.37;;;4.23;;
19016;SDS011;9641;51.494;6.670;2022-07-01T07:44:10;6.23;;;4.20;;
19016;SDS011;9641;51.494;6.670;2022-07-01T07:46:37;8.40;;;4.70;;
19016;SDS011;9641;51.494;6.670;2022-07-01T07:49:03;6.33;;;4.47;;
19016;SDS011;9641;51.494;6.670;2022-07-01T07:51:32;4.30;;;3.60;;
19016;SDS011;9641;51.494;6.670;2022-07-01T07:53:58;4.63;;;3.87;;
19016;SDS011;9641;51.494;6.670;2022-07-01T07:56:27;6.37;;;4.20;;
19016;SDS011;9641;51.494;6.670;2022-07-01T07:58:54;4.43;;;4.00;;
19016;SDS011;9641;51.494;6.670;2022-07-01T08:01:21;6.13;;;4.13;;
19016;SDS011;9641;51.494;6.670;2022-07-01T08:03:48;7.33;;;3.90;;
19016;SDS011;9641;51.494;6.670;2022-07-01T08:06:15;3.60;;;3.40;;
19016;SDS011;9641;51.494;6.670;2022-07-01T08:08:43;6.47;;;3.70;;
19016;SDS011;9641;51.494;6.670;2022-07-01T08:11:10;4.07;;;3.40;;
19016;SDS011;9641;51.494;6.670;2022-07-01T08:13:37;5.97;;;3.50;;
19016;SDS011;9641;51.494;6.670;2022-07-01T08:16:04;3.30;;;3.00;;
19016;SDS011;9641;51.494;6.670;2022-07-01T08:18:31;7.80;;;3.80;;
19016;SDS011;9641;51.494;6.670;2022-07-01T08:20:57;6.03;;;3.53;;
19016;SDS011;9641;51.494;6.670;2022-07-01T08:23:24;4.57;;;3.60;;
19016;SDS011;9641;51.494;6.670;2022-07-01T08:25:52;5.27;;;3.97;;
19016;SDS011;9641;51.494;6.670;2022-07-01T08:28:19;4.13;;;3.73;;
19016;SDS011;9641;51.494;6.670;2022-07-01T08:30:46;5.83;;;3.67;;
19016;SDS011;9641;51.494;6.670;2022-07-01T08:33:13;6.13;;;3.77;;
19016;SDS011;9641;51.494;6.670;2022-07-01T08:35:40;5.20;;;2.87;;
19016;SDS011;9641;51.494;6.670;2022-07-01T08:38:07;4.07;;;2.70;;
19016;SDS011;9641;51.494;6.670;2022-07-01T08:40:34;3.87;;;3.00;;
19016;SDS011;9641;51.494;6.670;2022-07-01T08:43:04;2.60;;;2.40;;
19016;SDS011;9641;51.494;6.670;2022-07-01T08:45:33;5.50;;;2.83;;
19016;SDS011;9641;51.494;6.670;2022-07-01T08:48:01;4.23;;;2.57;;
19016;SDS011;9641;51.494;6.670;2022-07-01T08:50:29;3.07;;;2.60;;
19016;SDS011;9641;51.494;6.670;2022-07-01T08:52:57;5.30;;;2.60;;
19016;SDS011;9641;51.494;6.670;2022-07-01T08:55:24;2.30;;;1.60;;
19016;SDS011;9641;51.494;6.670;2022-07-01T08:57:51;2.13;;;2.00;;
19016;SDS011;9641;51.494;6.670;2022-07-01T09:00:19;2.70;;;1.37;;
19016;SDS011;9641;51.494;6.670;2022-07-01T09:02:50;1.87;;;1.70;;
19016;SDS011;9641;51.494;6.670;2022-07-01T09:05:19;2.10;;;1.37;;
19016;SDS011;9641;51.494;6.670;2022-07-01T09:07:46;2.30;;;1.70;;
19016;SDS011;9641;51.494;6.670;2022-07-01T09:10:16;3.03;;;1.40;;
19016;SDS011;9641;51.494;6.670;2022-07-01T09:12:44;2.73;;;1.37;;
19016;SDS011;9641;51.494;6.670;2022-07-01T09:15:20;1.60;;;1.20;;
19016;SDS011;9641;51.494;6.670;2022-07-01T09:17:50;4.10;;;1.47;;
19016;SDS011;9641;51.494;6.670;2022-07-01T09:20:27;2.63;;;1.10;;
19016;SDS011;9641;51.494;6.670;2022-07-01T09:23:02;1.70;;;1.10;;
19016;SDS011;9641;51.494;6.670;2022-07-01T09:25:32;2.33;;;1.00;;
19016;SDS011;9641;51.494;6.670;2022-07-01T09:28:03;1.53;;;1.27;;
19016;SDS011;9641;51.494;6.670;2022-07-01T09:30:35;1.77;;;1.00;;
19016;SDS011;9641;51.494;6.670;2022-07-01T09:33:07;1.30;;;0.87;;
19016;SDS011;9641;51.494;6.670;2022-07-01T09:35:35;2.57;;;1.00;;
19016;SDS011;9641;51.494;6.670;2022-07-01T09:38:02;2.07;;;1.00;;
19016;SDS011;9641;51.494;6.670;2022-07-01T09:40:47;2.03;;;1.13;;
19016;SDS011;9641;51.494;6.670;2022-07-01T09:43:15;0.80;;;0.80;;
19016;SDS011;9641;51.494;6.670;2022-07-01T09:45:55;0.97;;;0.80;;
19016;SDS011;9641;51.494;6.670;2022-07-01T09:48:24;2.93;;;0.93;;
19016;SDS011;9641;51.494;6.670;2022-07-01T09:50:52;0.67;;;0.67;;
19016;SDS011;9641;51.494;6.670;2022-07-01T09:53:20;2.80;;;0.80;;
19016;SDS011;9641;51.494;6.670;2022-07-01T09:55:47;3.70;;;0.80;;
19016;SDS011;9641;51.494;6.670;2022-07-01T09:58:14;1.37;;;1.17;;
19016;SDS011;9641;51.494;6.670;2022-07-01T10:00:41;1.30;;;0.73;;
19016;SDS011;9641;51.494;6.670;2022-07-01T10:03:10;2.20;;;0.73;;
19016;SDS011;9641;51.494;6.670;2022-07-01T10:05:41;1.60;;;0.90;;
19016;SDS011;9641;51.494;6.670;2022-07-01T10:08:19;1.67;;;0.80;;
19016;SDS011;9641;51.494;6.670;2022-07-01T10:11:01;1.55;;;1.02;;
19016;SDS011;9641;51.494;6.670;2022-07-01T10:13:38;3.85;;;1.10;;
19016;SDS011;9641;51.494;6.670;2022-07-01T10:16:07;2.80;;;0.50;;
19016;SDS011;9641;51.494;6.670;2022-07-01T10:18:37;1.38;;;0.65;;
19016;SDS011;9641;51.494;6.670;2022-07-01T10:21:04;2.45;;;0.95;;
19016;SDS011;9641;51.494;6.670;2022-07-01T10:23:37;0.90;;;0.70;;
19016;SDS011;9641;51.494;6.670;2022-07-01T10:26:05;1.67;;;0.93;;
19016;SDS011;9641;51.494;6.670;2022-07-01T10:28:42;2.03;;;1.02;;
19016;SDS011;9641;51.494;6.670;2022-07-01T10:31:12;1.52;;;0.93;;
19016;SDS011;9641;51.494;6.670;2022-07-01T10:33:46;1.85;;;0.90;;
19016;SDS011;9641;51.494;6.670;2022-07-01T10:36:14;3.38;;;1.27;;
19016;SDS011;9641;51.494;6.670;2022-07-01T10:41:41;1.30;;;0.90;;
19016;SDS011;9641;51.494;6.670;2022-07-01T10:44:21;1.77;;;0.80;;
19016;SDS011;9641;51.494;6.670;2022-07-01T10:46:49;3.53;;;0.90;;
19016;SDS011;9641;51.494;6.670;2022-07-01T10:52:29;1.47;;;0.90;;
19016;SDS011;9641;51.494;6.670;2022-07-01T10:54:56;3.83;;;1.03;;
19016;SDS011;9641;51.494;6.670;2022-07-01T10:57:26;0.70;;;0.70;;
19016;SDS011;9641;51.494;6.670;2022-07-01T10:59:58;1.33;;;0.80;;
19016;SDS011;9641;51.494;6.670;2022-07-01T11:05:48;1.47;;;0.83;;
19016;SDS011;9641;51.494;6.670;2022-07-01T11:08:17;0.65;;;0.65;;
19016;SDS011;9641;51.494;6.670;2022-07-01T11:10:48;3.10;;;0.80;;
19016;SDS011;9641;51.494;6.670;2022-07-01T11:13:16;4.28;;;1.10;;
19016;SDS011;9641;51.494;6.670;2022-07-01T11:15:45;3.30;;;0.80;;
19016;SDS011;9641;51.494;6.670;2022-07-01T11:18:13;1.08;;;0.80;;
19016;SDS011;9641;51.494;6.670;2022-07-01T11:20:41;2.25;;;0.80;;
19016;SDS011;9641;51.494;6.670;2022-07-01T11:23:09;1.15;;;0.68;;
19016;SDS011;9641;51.494;6.670;2022-07-01T11:25:36;1.17;;;0.85;;
19016;SDS011;9641;51.494;6.670;2022-07-01T11:28:04;0.77;;;0.70;;
19016;SDS011;9641;51.494;6.670;2022-07-01T11:30:31;2.17;;;0.65;;
19016;SDS011;9641;51.494;6.670;2022-07-01T11:32:58;2.75;;;0.70;;
19016;SDS011;9641;51.494;6.670;2022-07-01T11:35:26;1.13;;;0.50;;
19016;SDS011;9641;51.494;6.670;2022-07-01T11:38:13;2.55;;;0.57;;
19016;SDS011;9641;51.494;6.670;2022-07-01T11:40:59;0.55;;;0.40;;
19016;SDS011;9641;51.494;6.670;2022-07-01T11:43:28;0.57;;;0.50;;
19016;SDS011;9641;51.494;6.670;2022-07-01T11:45:57;1.60;;;0.52;;
19016;SDS011;9641;51.494;6.670;2022-07-01T11:51:15;0.95;;;0.40;;
19016;SDS011;9641;51.494;6.670;2022-07-01T11:53:44;1.40;;;0.50;;
19016;SDS011;9641;51.494;6.670;2022-07-01T11:56:14;2.55;;;0.40;;
19016;SDS011;9641;51.494;6.670;2022-07-01T11:58:42;0.50;;;0.50;;
19016;SDS011;9641;51.494;6.670;2022-07-01T12:01:10;0.75;;;0.52;;
19016;SDS011;9641;51.494;6.670;2022-07-01T12:03:37;0.30;;;0.30;;
19016;SDS011;9641;51.494;6.670;2022-07-01T12:06:05;1.48;;;0.40;;
19016;SDS011;9641;51.494;6.670;2022-07-01T12:08:32;1.05;;;0.50;;
19016;SDS011;9641;51.494;6.670;2022-07-01T12:11:00;1.30;;;0.40;;
19016;SDS011;9641;51.494;6.670;2022-07-01T12:13:27;0.98;;;0.38;;
19016;SDS011;9641;51.494;6.670;2022-07-01T12:16:04;0.98;;;0.40;;
19016;SDS011;9641;51.494;6.670;2022-07-01T12:18:32;2.05;;;0.40;;
19016;SDS011;9641;51.494;6.670;2022-07-01T12:21:02;0.70;;;0.40;;
19016;SDS011;9641;51.494;6.670;2022-07-01T12:23:30;0.73;;;0.30;;
19016;SDS011;9641;51.494;6.670;2022-07-01T12:25:57;1.10;;;0.30;;
19016;SDS011;9641;51.494;6.670;2022-07-01T12:28:27;0.90;;;0.40;;
19016;SDS011;9641;51.494;6.670;2022-07-01T12:30:59;0.45;;;0.30;;
19016;SDS011;9641;51.494;6.670;2022-07-01T12:33:27;0.88;;;0.40;;
19016;SDS011;9641;51.494;6.670;2022-07-01T12:35:54;2.05;;;0.60;;
19016;SDS011;9641;51.494;6.670;2022-07-01T12:38:21;0.40;;;0.35;;
19016;SDS011;9641;51.494;6.670;2022-07-01T12:40:48;1.08;;;0.30;;
19016;SDS011;9641;51.494;6.670;2022-07-01T12:43:25;0.63;;;0.40;;
19016;SDS011;9641;51.494;6.670;2022-07-01T12:45:58;2.38;;;0.40;;
19016;SDS011;9641;51.494;6.670;2022-07-01T12:48:26;1.00;;;0.30;;
19016;SDS011;9641;51.494;6.670;2022-07-01T12:50:54;1.08;;;0.50;;
19016;SDS011;9641;51.494;6.670;2022-07-01T12:53:23;0.68;;;0.35;;
19016;SDS011;9641;51.494;6.670;2022-07-01T12:55:51;1.48;;;0.50;;
19016;SDS011;9641;51.494;6.670;2022-07-01T12:58:22;2.60;;;0.50;;
19016;SDS011;9641;51.494;6.670;2022-07-01T13:00:52;2.30;;;0.60;;
19016;SDS011;9641;51.494;6.670;2022-07-01T13:03:22;0.70;;;0.40;;
19016;SDS011;9641;51.494;6.670;2022-07-01T13:05:50;2.83;;;0.40;;
19016;SDS011;9641;51.494;6.670;2022-07-01T13:08:18;1.38;;;0.50;;
19016;SDS011;9641;51.494;6.670;2022-07-01T13:10:45;1.67;;;0.32;;
19016;SDS011;9641;51.494;6.670;2022-07-01T13:13:13;1.17;;;0.40;;
19016;SDS011;9641;51.494;6.670;2022-07-01T13:15:42;0.77;;;0.40;;
19016;SDS011;9641;51.494;6.670;2022-07-01T13:18:11;0.55;;;0.32;;
19016;SDS011;9641;51.494;6.670;2022-07-01T13:20:39;1.58;;;0.40;;
19016;SDS011;9641;51.494;6.670;2022-07-01T13:23:06;0.35;;;0.30;;
19016;SDS011;9641;51.494;6.670;2022-07-01T13:25:33;0.73;;;0.32;;
19016;SDS011;9641;51.494;6.670;2022-07-01T13:28:02;0.35;;;0.30;;
19016;SDS011;9641;51.494;6.670;2022-07-01T13:30:29;1.48;;;0.50;;
19016;SDS011;9641;51.494;6.670;2022-07-01T13:32:56;1.08;;;0.43;;
19016;SDS011;9641;51.494;6.670;2022-07-01T13:35:25;0.65;;;0.43;;
19016;SDS011;9641;51.494;6.670;2022-07-01T13:37:52;0.68;;;0.28;;
19016;SDS011;9641;51.494;6.670;2022-07-01T13:40:19;2.97;;;0.50;;
19016;SDS011;9641;51.494;6.670;2022-07-01T13:42:47;1.17;;;0.60;;
19016;SDS011;9641;51.494;6.670;2022-07-01T13:45:14;1.48;;;0.30;;
19016;SDS011;9641;51.494;6.670;2022-07-01T13:47:41;1.40;;;0.40;;
19016;SDS011;9641;51.494;6.670;2022-07-01T13:50:08;0.70;;;0.40;;
19016;SDS011;9641;51.494;6.670;2022-07-01T13:52:39;0.52;;;0.30;;
19016;SDS011;9641;51.494;6.670;2022-07-01T13:55:06;2.25;;;0.50;;
19016;SDS011;9641;51.494;6.670;2022-07-01T13:57:33;0.47;;;0.25;;
19016;SDS011;9641;51.494;6.670;2022-07-01T14:00:00;2.72;;;0.50;;
19016;SDS011;9641;51.494;6.670;2022-07-01T14:02:34;0.52;;;0.35;;
19016;SDS011;9641;51.494;6.670;2022-07-01T14:05:00;1.00;;;0.43;;
19016;SDS011;9641;51.494;6.670;2022-07-01T14:07:28;0.50;;;0.30;;
19016;SDS011;9641;51.494;6.670;2022-07-01T14:09:56;0.70;;;0.40;;
19016;SDS011;9641;51.494;6.670;2022-07-01T14:12:23;1.33;;;0.38;;
19016;SDS011;9641;51.494;6.670;2022-07-01T14:14:50;1.65;;;0.70;;
19016;SDS011;9641;51.494;6.670;2022-07-01T14:17:18;2.95;;;0.90;;
19016;SDS011;9641;51.494;6.670;2022-07-01T14:19:45;2.05;;;0.80;;
19016;SDS011;9641;51.494;6.670;2022-07-01T14:22:12;0.50;;;0.50;;
19016;SDS011;9641;51.494;6.670;2022-07-01T14:24:39;1.00;;;0.47;;
19016;SDS011;9641;51.494;6.670;2022-07-01T14:27:07;0.93;;;0.50;;
19016;SDS011;9641;51.494;6.670;2022-07-01T14:29:34;1.85;;;0.70;;
19016;SDS011;9641;51.494;6.670;2022-07-01T14:32:02;2.55;;;0.60;;
19016;SDS011;9641;51.494;6.670;2022-07-01T14:34:32;0.70;;;0.40;;
19016;SDS011;9641;51.494;6.670;2022-07-01T14:36:58;0.90;;;0.50;;
19016;SDS011;9641;51.494;6.670;2022-07-01T14:39:25;0.60;;;0.50;;
19016;SDS011;9641;51.494;6.670;2022-07-01T14:41:52;0.40;;;0.40;;
19016;SDS011;9641;51.494;6.670;2022-07-01T14:44:21;0.75;;;0.68;;
19016;SDS011;9641;51.494;6.670;2022-07-01T14:46:48;0.80;;;0.52;;
19016;SDS011;9641;51.494;6.670;2022-07-01T14:49:16;1.25;;;0.50;;
19016;SDS011;9641;51.494;6.670;2022-07-01T14:51:46;1.30;;;0.47;;
19016;SDS011;9641;51.494;6.670;2022-07-01T14:54:13;0.68;;;0.50;;
19016;SDS011;9641;51.494;6.670;2022-07-01T14:56:40;0.60;;;0.50;;
19016;SDS011;9641;51.494;6.670;2022-07-01T14:59:07;0.65;;;0.65;;
19016;SDS011;9641;51.494;6.670;2022-07-01T15:01:35;3.15;;;0.60;;
19016;SDS011;9641;51.494;6.670;2022-07-01T15:04:02;1.70;;;0.50;;
19016;SDS011;9641;51.494;6.670;2022-07-01T15:06:32;0.75;;;0.60;;
19016;SDS011;9641;51.494;6.670;2022-07-01T15:08:59;1.30;;;0.50;;